Time;durP1;ratioP1;P1;durP2;ratioP2;P2;SDS_P1;SDS_P2;PMS_P1;PMS_P2;Temp;Humidity;BMP_temperature;BMP_pressure;BME280_temperature;BME280_humidity;BME280_pressure;Samples;Min_cycle;Max_cycle;Signal;HPM_P1;HPM_P2
2023/09/27 00:00:44;;;;;;;4.75;4.25;;;15.30;99.90;;;;;;4978547;28;20049;-74
2023/09/27 00:03:11;;;;;;;4.60;4.10;;;15.40;99.90;;;;;;4979264;28;20030;-74
2023/09/27 00:05:38;;;;;;;4.72;4.30;;;15.50;99.90;;;;;;4994708;28;20037;-74
2023/09/27 00:08:06;;;;;;;4.93;4.43;;;15.60;99.90;;;;;;4992574;28;20030;-74
2023/09/27 00:10:33;;;;;;;4.88;4.15;;;15.60;99.90;;;;;;4977710;28;20038;-74
2023/09/27 00:12:59;;;;;;;4.85;4.35;;;15.70;99.90;;;;;;4995427;28;20030;-74
2023/09/27 00:15:26;;;;;;;6.10;3.50;;;15.80;99.90;;;;;;4980212;28;20034;-74
2023/09/27 00:17:52;;;;;;;4.53;3.90;;;15.80;99.90;;;;;;4978291;28;20054;-74
2023/09/27 00:20:20;;;;;;;6.95;3.97;;;15.90;99.90;;;;;;4977448;28;20030;-73
2023/09/27 00:22:46;;;;;;;4.28;3.83;;;15.90;99.90;;;;;;4994320;28;20038;-74
2023/09/27 00:25:14;;;;;;;4.22;3.63;;;15.90;99.90;;;;;;4977538;28;20037;-73
2023/09/27 00:27:41;;;;;;;6.10;3.83;;;16.00;99.90;;;;;;4977806;28;20038;-73
2023/09/27 00:30:14;;;;;;;4.35;3.40;;;16.00;99.90;;;;;;4979787;28;20049;-73
2023/09/27 00:32:45;;;;;;;4.97;3.80;;;16.10;99.90;;;;;;4979769;28;20404;-73
2023/09/27 00:35:18;;;;;;;4.65;3.67;;;16.10;99.90;;;;;;4980437;28;20034;-73
2023/09/27 00:37:49;;;;;;;3.25;2.95;;;16.10;99.90;;;;;;5008439;28;20041;-74
2023/09/27 00:40:18;;;;;;;4.97;2.95;;;16.20;99.90;;;;;;4998232;28;20041;-74
2023/09/27 00:42:47;;;;;;;3.38;3.08;;;16.20;99.90;;;;;;4999354;28;20493;-73
2023/09/27 00:45:13;;;;;;;3.60;2.72;;;16.20;99.90;;;;;;4996934;28;20460;-74
2023/09/27 00:47:41;;;;;;;3.75;2.97;;;16.30;99.90;;;;;;4998153;28;20491;-73
2023/09/27 00:50:11;;;;;;;4.13;3.03;;;16.30;99.90;;;;;;5016683;28;20042;-73
2023/09/27 00:52:41;;;;;;;3.13;2.58;;;16.30;99.90;;;;;;4998379;28;20033;-74
2023/09/27 00:55:11;;;;;;;2.55;2.10;;;16.20;99.90;;;;;;4995452;28;20030;-73
2023/09/27 00:57:39;;;;;;;3.70;2.50;;;16.20;99.90;;;;;;4981694;28;20035;-74
2023/09/27 01:00:10;;;;;;;3.60;3.15;;;16.10;99.90;;;;;;4999453;28;22168;-74
2023/09/27 01:02:41;;;;;;;7.07;3.30;;;16.00;99.90;;;;;;4997696;28;20049;-73
2023/09/27 01:05:10;;;;;;;4.43;3.00;;;15.90;99.90;;;;;;4976749;28;20303;-74
2023/09/27 01:07:38;;;;;;;4.38;3.88;;;15.80;99.90;;;;;;4980430;28;20041;-74
2023/09/27 01:10:07;;;;;;;5.32;3.20;;;15.80;99.90;;;;;;4994693;28;20042;-74
2023/09/27 01:12:34;;;;;;;3.10;2.70;;;15.70;99.90;;;;;;4999478;28;20045;-73
2023/09/27 01:15:01;;;;;;;3.83;3.40;;;15.70;99.90;;;;;;4997119;28;20045;-74
2023/09/27 01:17:27;;;;;;;3.47;3.13;;;15.60;99.90;;;;;;4994534;28;20041;-74
2023/09/27 01:19:53;;;;;;;3.58;3.22;;;15.50;99.90;;;;;;4966326;28;20395;-73
2023/09/27 01:22:20;;;;;;;6.15;3.42;;;15.50;99.90;;;;;;4981118;28;20041;-74
2023/09/27 01:24:48;;;;;;;4.47;3.05;;;15.40;99.90;;;;;;4999030;28;20030;-74
2023/09/27 01:27:16;;;;;;;4.43;3.03;;;15.30;99.90;;;;;;4980532;28;20048;-74
2023/09/27 01:29:43;;;;;;;3.72;2.92;;;15.30;99.90;;;;;;4997972;28;20401;-74
2023/09/27 01:32:09;;;;;;;3.55;2.80;;;15.20;99.90;;;;;;5014172;28;20037;-74
2023/09/27 01:34:36;;;;;;;3.70;3.03;;;15.10;99.90;;;;;;4998250;28;20034;-75
2023/09/27 01:37:02;;;;;;;4.20;2.83;;;15.10;99.90;;;;;;5013657;28;20041;-74
2023/09/27 01:39:30;;;;;;;4.43;3.13;;;15.10;99.90;;;;;;5002430;28;20030;-73
2023/09/27 01:41:57;;;;;;;3.10;2.78;;;15.00;99.90;;;;;;4963310;28;20079;-73
2023/09/27 01:44:23;;;;;;;5.22;3.38;;;15.00;99.90;;;;;;4981023;28;20038;-73
2023/09/27 01:46:49;;;;;;;4.25;3.25;;;14.90;99.90;;;;;;4982619;28;20041;-73
2023/09/27 01:49:16;;;;;;;4.30;3.75;;;14.90;99.90;;;;;;5012512;28;20045;-73
2023/09/27 01:51:42;;;;;;;4.93;4.03;;;14.80;99.90;;;;;;4994600;28;20041;-74
2023/09/27 01:54:08;;;;;;;4.65;3.90;;;14.80;99.90;;;;;;4979032;28;20567;-74
2023/09/27 01:56:35;;;;;;;3.92;3.63;;;14.80;99.90;;;;;;4980684;28;20033;-73
2023/09/27 01:59:01;;;;;;;5.43;4.10;;;14.70;99.90;;;;;;4975903;28;20425;-74
2023/09/27 02:01:28;;;;;;;5.28;4.25;;;14.70;99.90;;;;;;4981497;28;20042;-74
2023/09/27 02:03:54;;;;;;;4.30;3.90;;;14.60;99.90;;;;;;4996233;28;20472;-73
2023/09/27 02:06:23;;;;;;;4.93;3.92;;;14.60;99.90;;;;;;4994343;28;20037;-74
2023/09/27 02:08:49;;;;;;;4.70;3.83;;;14.50;99.90;;;;;;5009392;28;20042;-74
2023/09/27 02:11:16;;;;;;;4.97;4.45;;;14.50;99.90;;;;;;4982630;28;20042;-73
2023/09/27 02:13:43;;;;;;;4.65;3.83;;;14.50;99.90;;;;;;4998276;28;20041;-74
2023/09/27 02:16:09;;;;;;;5.13;4.18;;;14.50;99.90;;;;;;4996722;28;20454;-74
2023/09/27 02:18:36;;;;;;;5.85;5.20;;;14.40;99.90;;;;;;4997857;28;20061;-74
2023/09/27 02:21:03;;;;;;;6.10;5.10;;;14.40;99.90;;;;;;4997744;28;20061;-74
2023/09/27 02:23:30;;;;;;;8.40;5.22;;;14.40;99.90;;;;;;4997277;28;20034;-74
2023/09/27 02:25:57;;;;;;;5.13;4.60;;;14.30;99.90;;;;;;5012115;28;20037;-73
2023/09/27 02:28:24;;;;;;;6.95;5.50;;;14.30;99.90;;;;;;4996051;28;20038;-73
2023/09/27 02:30:50;;;;;;;7.97;5.60;;;14.30;99.90;;;;;;4992915;28;20064;-73
2023/09/27 02:33:18;;;;;;;4.78;4.32;;;14.30;99.90;;;;;;4996180;28;20034;-73
2023/09/27 02:35:44;;;;;;;5.07;4.57;;;14.20;99.90;;;;;;4979272;28;20089;-73
2023/09/27 02:38:11;;;;;;;6.10;5.47;;;14.30;99.90;;;;;;4995906;28;20038;-74
2023/09/27 02:40:38;;;;;;;6.68;5.70;;;14.20;99.90;;;;;;4980897;28;20038;-74
2023/09/27 02:43:05;;;;;;;7.82;5.53;;;14.20;99.90;;;;;;4980442;28;20056;-74
2023/09/27 02:45:31;;;;;;;5.55;5.05;;;14.20;99.90;;;;;;4996785;28;20049;-74
2023/09/27 02:47:58;;;;;;;4.95;4.55;;;14.20;99.90;;;;;;4996647;28;20033;-74
2023/09/27 02:50:25;;;;;;;6.20;5.32;;;14.20;99.90;;;;;;4977369;28;20044;-73
2023/09/27 02:52:52;;;;;;;5.13;4.63;;;14.10;99.90;;;;;;4963520;28;20041;-74
2023/09/27 02:55:18;;;;;;;5.65;5.15;;;14.20;99.90;;;;;;4995855;28;20034;-74
2023/09/27 02:57:50;;;;;;;5.28;4.78;;;14.20;99.90;;;;;;4979945;28;20034;-74
2023/09/27 03:00:18;;;;;;;6.32;5.32;;;14.20;99.90;;;;;;4965180;28;20041;-73
2023/09/27 03:02:45;;;;;;;7.47;6.15;;;14.10;99.90;;;;;;4979797;28;20042;-73
2023/09/27 03:05:12;;;;;;;6.55;5.93;;;14.10;99.90;;;;;;4996787;28;20026;-73
2023/09/27 03:07:38;;;;;;;5.68;5.18;;;14.10;99.90;;;;;;4981343;28;20040;-74
2023/09/27 03:10:08;;;;;;;7.53;6.72;;;14.10;99.90;;;;;;4979001;28;20042;-74
2023/09/27 03:12:35;;;;;;;7.82;7.13;;;14.00;99.90;;;;;;4992988;28;20393;-73
2023/09/27 03:15:01;;;;;;;7.53;6.82;;;14.10;99.90;;;;;;4979500;28;20477;-73
2023/09/27 03:17:28;;;;;;;6.93;6.15;;;14.10;99.90;;;;;;4995405;28;20034;-73
2023/09/27 03:19:55;;;;;;;7.07;6.38;;;14.10;99.90;;;;;;4979595;28;20033;-74
2023/09/27 03:22:22;;;;;;;7.55;6.80;;;14.00;99.90;;;;;;4996261;28;20037;-74
2023/09/27 03:24:49;;;;;;;8.43;7.65;;;14.00;99.90;;;;;;4995863;28;20041;-74
2023/09/27 03:27:16;;;;;;;7.88;7.10;;;14.00;99.90;;;;;;5010152;28;20038;-74
2023/09/27 03:29:42;;;;;;;7.57;6.88;;;14.00;99.90;;;;;;5008650;28;20404;-74
2023/09/27 03:32:10;;;;;;;8.73;7.82;;;14.00;99.90;;;;;;4995453;28;20057;-74
2023/09/27 03:34:37;;;;;;;7.53;6.72;;;14.00;99.90;;;;;;4996000;28;20461;-74
2023/09/27 03:37:04;;;;;;;8.00;6.72;;;14.00;99.90;;;;;;4995842;28;20033;-74
2023/09/27 03:39:35;;;;;;;6.60;5.93;;;13.90;99.90;;;;;;4981236;28;20041;-73
2023/09/27 03:42:03;;;;;;;7.70;6.97;;;13.90;99.90;;;;;;4995948;28;20057;-73
2023/09/27 03:44:30;;;;;;;7.47;6.78;;;13.90;99.90;;;;;;4978880;28;20759;-73
2023/09/27 03:46:56;;;;;;;7.38;6.68;;;13.90;99.90;;;;;;5010728;28;20033;-74
2023/09/27 03:49:22;;;;;;;6.75;6.05;;;13.90;99.90;;;;;;4965382;28;20096;-73
2023/09/27 03:51:50;;;;;;;6.40;5.78;;;13.90;99.90;;;;;;4996697;28;20057;-74
2023/09/27 03:54:16;;;;;;;6.32;5.72;;;13.90;99.90;;;;;;4996529;28;20053;-74
2023/09/27 03:56:42;;;;;;;5.80;5.18;;;13.90;99.90;;;;;;4994965;28;20508;-74
2023/09/27 03:59:09;;;;;;;7.18;5.90;;;13.90;99.90;;;;;;4994742;28;20029;-74
2023/09/27 04:01:35;;;;;;;5.55;5.05;;;13.90;99.90;;;;;;4995924;28;20045;-73
2023/09/27 04:04:04;;;;;;;6.30;5.70;;;13.90;99.90;;;;;;4963482;28;20041;-73
2023/09/27 04:06:31;;;;;;;6.63;5.93;;;13.80;99.90;;;;;;4996572;28;20469;-74
2023/09/27 04:08:57;;;;;;;8.32;7.07;;;13.80;99.90;;;;;;4996541;28;20252;-75
2023/09/27 04:11:24;;;;;;;7.97;7.25;;;13.80;99.90;;;;;;4979605;28;20428;-74
2023/09/27 04:13:50;;;;;;;7.53;6.82;;;13.80;99.90;;;;;;4998264;28;20042;-74
2023/09/27 04:16:17;;;;;;;6.90;6.20;;;13.80;99.90;;;;;;4983125;28;20045;-74
2023/09/27 04:18:43;;;;;;;8.75;7.07;;;13.80;99.90;;;;;;4982164;28;20030;-73
2023/09/27 04:21:11;;;;;;;7.50;6.65;;;13.80;99.90;;;;;;4982908;28;20393;-74
2023/09/27 04:23:37;;;;;;;8.43;7.68;;;13.80;99.90;;;;;;4983540;28;20041;-74
2023/09/27 04:26:07;;;;;;;13.45;11.82;;;13.80;99.90;;;;;;5014601;28;20030;-74
2023/09/27 04:28:33;;;;;;;13.18;11.50;;;13.80;99.90;;;;;;4998817;28;20030;-75
2023/09/27 04:31:00;;;;;;;13.23;11.82;;;13.80;99.90;;;;;;4999617;28;20040;-73
2023/09/27 04:33:26;;;;;;;11.57;10.38;;;13.80;99.90;;;;;;5000013;28;20058;-74
2023/09/27 04:35:53;;;;;;;11.07;9.35;;;13.80;99.90;;;;;;4998589;28;20034;-74
2023/09/27 04:38:19;;;;;;;9.07;8.18;;;13.70;99.90;;;;;;4997618;28;20030;-74
2023/09/27 04:40:46;;;;;;;9.48;7.75;;;13.80;99.90;;;;;;4998731;28;20381;-75
2023/09/27 04:43:12;;;;;;;10.10;8.90;;;13.70;99.90;;;;;;4982246;28;20420;-73
2023/09/27 04:45:39;;;;;;;10.35;9.02;;;13.70;99.90;;;;;;4998819;28;20045;-73
2023/09/27 04:48:06;;;;;;;14.90;12.07;;;13.70;99.90;;;;;;4998119;28;20033;-73
2023/09/27 04:50:33;;;;;;;12.00;10.70;;;13.70;99.90;;;;;;4966002;28;20472;-73
2023/09/27 04:53:00;;;;;;;10.45;9.35;;;13.60;99.90;;;;;;4996833;28;20668;-73
2023/09/27 04:55:27;;;;;;;8.95;8.00;;;13.60;99.90;;;;;;4997162;28;20033;-73
2023/09/27 04:57:54;;;;;;;7.97;6.63;;;13.60;99.90;;;;;;4981970;28;20034;-73
2023/09/27 05:00:22;;;;;;;6.25;5.65;;;13.60;99.90;;;;;;4965908;28;20473;-73
2023/09/27 05:02:48;;;;;;;7.72;6.25;;;13.60;99.90;;;;;;4983065;28;20034;-74
2023/09/27 05:05:16;;;;;;;6.40;5.80;;;13.60;99.90;;;;;;4997833;28;20042;-74
2023/09/27 05:07:43;;;;;;;7.15;6.45;;;13.50;99.90;;;;;;4981424;28;20083;-73
2023/09/27 05:10:10;;;;;;;7.55;6.35;;;13.50;99.90;;;;;;4968371;28;20042;-74
2023/09/27 05:12:37;;;;;;;8.38;7.45;;;13.50;99.90;;;;;;4982526;28;20042;-74
2023/09/27 05:15:04;;;;;;;7.93;7.10;;;13.50;99.90;;;;;;5013282;28;20034;-74
2023/09/27 05:17:31;;;;;;;7.38;6.70;;;13.50;99.90;;;;;;4980572;28;20033;-73
2023/09/27 05:19:57;;;;;;;6.63;6.03;;;13.50;99.90;;;;;;4981938;28;20045;-74
2023/09/27 05:22:24;;;;;;;7.60;6.80;;;13.50;99.90;;;;;;4998283;28;20035;-73
2023/09/27 05:24:50;;;;;;;7.00;6.30;;;13.50;99.90;;;;;;4980236;28;20026;-73
2023/09/27 05:27:17;;;;;;;7.63;6.57;;;13.50;99.90;;;;;;5011082;28;20053;-73
2023/09/27 05:29:45;;;;;;;6.50;5.90;;;13.50;99.90;;;;;;4997746;28;20034;-73
2023/09/27 05:32:12;;;;;;;7.15;6.28;;;13.50;99.90;;;;;;4980487;28;20381;-74
2023/09/27 05:34:38;;;;;;;7.78;7.07;;;13.50;99.90;;;;;;4981366;28;20049;-73
2023/09/27 05:37:05;;;;;;;7.75;6.95;;;13.50;99.90;;;;;;4998541;28;20473;-73
2023/09/27 05:39:31;;;;;;;8.68;7.78;;;13.50;99.90;;;;;;4980221;28;20033;-74
2023/09/27 05:41:58;;;;;;;10.10;8.15;;;13.50;99.90;;;;;;4998178;28;20445;-73
2023/09/27 05:44:25;;;;;;;9.57;8.10;;;13.60;99.90;;;;;;4964389;28;20409;-73
2023/09/27 05:46:51;;;;;;;9.82;8.18;;;13.60;99.90;;;;;;4983638;28;20391;-74
2023/09/27 05:49:18;;;;;;;9.43;8.13;;;13.60;99.90;;;;;;4982554;28;20648;-74
2023/09/27 05:51:44;;;;;;;8.82;7.07;;;13.70;99.90;;;;;;4996872;28;20034;-73
2023/09/27 05:54:11;;;;;;;8.27;7.25;;;13.70;99.90;;;;;;4998198;28;20034;-73
2023/09/27 05:56:38;;;;;;;7.63;6.82;;;13.70;99.90;;;;;;4997819;28;20125;-74
2023/09/27 05:59:11;;;;;;;7.78;6.97;;;13.70;99.90;;;;;;4998702;28;20062;-73
2023/09/27 06:01:39;;;;;;;8.50;7.03;;;13.80;99.90;;;;;;4981031;28;20045;-73
2023/09/27 06:04:07;;;;;;;7.80;7.00;;;13.80;99.90;;;;;;4980975;28;20034;-73
2023/09/27 06:06:35;;;;;;;8.02;7.13;;;13.80;99.90;;;;;;5012519;28;20173;-73
2023/09/27 06:09:05;;;;;;;9.13;8.23;;;13.90;99.90;;;;;;4981147;28;20042;-73
2023/09/27 06:11:32;;;;;;;8.20;7.15;;;14.00;99.90;;;;;;4981332;28;20045;-73
2023/09/27 06:13:59;;;;;;;9.50;7.95;;;14.10;99.90;;;;;;4999325;28;20033;-73
2023/09/27 06:16:26;;;;;;;9.05;8.15;;;14.20;99.90;;;;;;4980538;28;20038;-73
2023/09/27 06:18:53;;;;;;;9.20;8.35;;;14.30;99.90;;;;;;5014797;28;21059;-73
2023/09/27 06:21:19;;;;;;;8.70;7.88;;;14.40;99.90;;;;;;4982088;28;20396;-73
2023/09/27 06:23:45;;;;;;;8.80;7.75;;;14.50;99.90;;;;;;4998730;28;20030;-73
2023/09/27 06:26:12;;;;;;;7.53;6.82;;;14.50;99.90;;;;;;4996329;28;20042;-73
2023/09/27 06:28:39;;;;;;;7.97;7.05;;;14.60;99.90;;;;;;4997674;28;20037;-73
2023/09/27 06:31:06;;;;;;;10.68;7.72;;;14.60;99.90;;;;;;4981735;28;20411;-73
2023/09/27 06:33:39;;;;;;;8.48;7.60;;;14.60;99.90;;;;;;4998115;28;20057;-73
2023/09/27 06:36:08;;;;;;;8.68;7.88;;;14.70;99.90;;;;;;4978850;28;20037;-74
2023/09/27 06:38:35;;;;;;;8.75;7.85;;;14.80;99.90;;;;;;4997324;28;20396;-73
2023/09/27 06:41:01;;;;;;;9.20;8.40;;;14.80;99.90;;;;;;4996954;28;20040;-73
2023/09/27 06:43:29;;;;;;;9.43;8.52;;;14.90;99.90;;;;;;4997400;28;20068;-73
2023/09/27 06:45:56;;;;;;;9.43;8.43;;;15.00;99.90;;;;;;4996764;28;20037;-73
2023/09/27 06:48:24;;;;;;;11.25;10.00;;;15.10;99.90;;;;;;4981044;28;20623;-73
2023/09/27 06:50:50;;;;;;;10.32;9.35;;;15.20;99.90;;;;;;4997522;28;20046;-73
2023/09/27 06:53:17;;;;;;;9.70;8.80;;;15.30;99.90;;;;;;4980000;28;20282;-73
2023/09/27 06:55:44;;;;;;;9.70;8.73;;;15.40;99.90;;;;;;4996884;28;20026;-73
2023/09/27 06:58:13;;;;;;;10.05;9.05;;;15.40;99.90;;;;;;4998763;28;20038;-73
2023/09/27 07:00:42;;;;;;;9.45;8.52;;;15.50;99.90;;;;;;4980591;28;20037;-73
2023/09/27 07:03:09;;;;;;;11.02;10.02;;;15.60;99.90;;;;;;4979557;28;20517;-73
2023/09/27 07:05:35;;;;;;;10.48;9.48;;;15.80;99.90;;;;;;4963963;28;20370;-74
2023/09/27 07:08:03;;;;;;;11.88;10.68;;;16.00;99.90;;;;;;4962580;28;20042;-73
2023/09/27 07:10:29;;;;;;;10.75;9.73;;;16.20;99.90;;;;;;4980329;28;20064;-74
2023/09/27 07:12:56;;;;;;;10.45;9.48;;;16.40;99.90;;;;;;4997628;28;20038;-73
2023/09/27 07:15:22;;;;;;;9.98;9.02;;;16.60;99.90;;;;;;4982460;28;20041;-73
2023/09/27 07:17:49;;;;;;;10.15;9.15;;;16.80;99.90;;;;;;4995768;28;20030;-73
2023/09/27 07:20:26;;;;;;;10.50;9.50;;;16.90;99.90;;;;;;4996833;28;20049;-73
2023/09/27 07:22:54;;;;;;;9.90;8.93;;;16.90;99.90;;;;;;5012608;28;20365;-73
2023/09/27 07:25:21;;;;;;;11.18;10.07;;;16.90;99.90;;;;;;4995702;28;20026;-73
2023/09/27 07:27:48;;;;;;;9.15;8.32;;;17.00;99.90;;;;;;4980187;28;20483;-73
2023/09/27 07:30:18;;;;;;;9.32;8.43;;;17.10;99.90;;;;;;4979639;28;20033;-73
2023/09/27 07:32:48;;;;;;;9.75;8.52;;;17.30;99.90;;;;;;4993325;28;20041;-73
2023/09/27 07:35:16;;;;;;;9.70;8.52;;;17.30;99.90;;;;;;4979540;28;20042;-73
2023/09/27 07:37:43;;;;;;;9.18;8.38;;;17.40;99.90;;;;;;5006617;28;20045;-73
2023/09/27 07:40:12;;;;;;;7.68;6.88;;;17.40;99.90;;;;;;5009410;28;20030;-73
2023/09/27 07:42:44;;;;;;;8.90;8.00;;;17.40;99.90;;;;;;4976621;28;20045;-72
2023/09/27 07:45:15;;;;;;;8.20;7.50;;;17.30;99.90;;;;;;4989457;28;20034;-73
2023/09/27 07:47:42;;;;;;;7.75;7.05;;;17.30;99.90;;;;;;4988367;28;20038;-73
2023/09/27 07:50:10;;;;;;;7.75;7.05;;;17.30;99.90;;;;;;4976203;28;20073;-73
2023/09/27 07:52:37;;;;;;;10.43;9.52;;;17.30;99.90;;;;;;4958406;28;20409;-73
2023/09/27 07:55:04;;;;;;;9.82;8.82;;;17.30;99.90;;;;;;4974804;28;20073;-73
2023/09/27 07:57:31;;;;;;;9.23;8.23;;;17.20;99.90;;;;;;4990494;28;20034;-73
2023/09/27 07:59:58;;;;;;;9.48;8.55;;;17.20;99.90;;;;;;4992214;28;20049;-73
2023/09/27 08:02:24;;;;;;;9.95;8.98;;;17.30;99.90;;;;;;4989656;28;20049;-73
2023/09/27 08:04:51;;;;;;;10.02;8.68;;;17.40;99.90;;;;;;4976217;28;20053;-77
2023/09/27 08:07:18;;;;;;;8.63;7.82;;;17.50;99.90;;;;;;4992407;28;20034;-79
2023/09/27 08:09:45;;;;;;;11.60;10.48;;;17.60;99.90;;;;;;4978489;28;20034;-77
2023/09/27 08:12:11;;;;;;;11.73;10.63;;;17.70;99.90;;;;;;4962460;28;20038;-76
2023/09/27 08:14:38;;;;;;;10.27;9.38;;;17.70;99.90;;;;;;4995800;28;20473;-77
2023/09/27 08:17:04;;;;;;;11.57;9.60;;;17.70;99.90;;;;;;5008062;28;20045;-76
2023/09/27 08:19:31;;;;;;;10.57;9.43;;;17.90;99.90;;;;;;4994617;28;20029;-76
2023/09/27 08:21:58;;;;;;;10.18;9.15;;;17.90;99.90;;;;;;4993773;28;20045;-76
2023/09/27 08:24:24;;;;;;;10.32;9.15;;;18.10;99.90;;;;;;4995243;28;20030;-77
2023/09/27 08:26:51;;;;;;;9.70;8.55;;;18.10;99.90;;;;;;4959330;28;20053;-78
2023/09/27 08:29:18;;;;;;;9.15;8.25;;;18.20;99.90;;;;;;4992848;28;20064;-74
2023/09/27 08:31:45;;;;;;;10.25;9.20;;;18.20;99.90;;;;;;4993214;28;20040;-74
2023/09/27 08:34:11;;;;;;;9.40;8.55;;;18.30;99.90;;;;;;4994385;28;20400;-74
2023/09/27 08:36:37;;;;;;;9.85;8.68;;;18.40;99.90;;;;;;4990772;28;20033;-74
2023/09/27 08:39:04;;;;;;;10.05;9.05;;;18.60;99.90;;;;;;4993111;28;20452;-74
2023/09/27 08:41:30;;;;;;;9.30;8.40;;;18.60;99.90;;;;;;4961897;28;20049;-74
2023/09/27 08:43:57;;;;;;;12.05;9.68;;;18.80;99.90;;;;;;4962400;28;20037;-74
2023/09/27 08:46:24;;;;;;;8.60;7.57;;;18.90;99.90;;;;;;4974263;28;20056;-74
2023/09/27 08:48:52;;;;;;;8.63;7.70;;;19.00;99.90;;;;;;5010802;28;20026;-74
2023/09/27 08:51:18;;;;;;;7.57;6.97;;;19.00;99.90;;;;;;4993500;28;20037;-74
2023/09/27 08:53:45;;;;;;;8.38;7.43;;;19.10;99.90;;;;;;4993186;28;20046;-74
2023/09/27 08:56:16;;;;;;;8.52;7.75;;;19.20;99.90;;;;;;5007700;28;20018;-74
2023/09/27 08:58:45;;;;;;;6.10;5.53;;;19.40;99.90;;;;;;4978880;28;20029;-73
2023/09/27 09:01:11;;;;;;;7.30;6.60;;;19.60;99.90;;;;;;4997177;28;20026;-74
2023/09/27 09:03:38;;;;;;;7.65;6.95;;;19.70;99.90;;;;;;4997408;28;20404;-74
2023/09/27 09:06:07;;;;;;;10.90;9.65;;;19.90;99.90;;;;;;5000694;28;20042;-74
2023/09/27 09:08:39;;;;;;;8.18;6.40;;;20.10;99.90;;;;;;4999834;28;20045;-78
2023/09/27 09:11:08;;;;;;;;;;;20.30;99.90;;;;;;4982910;28;20034;-80
2023/09/27 09:13:53;;;;;;;7.78;5.85;;;20.50;99.90;;;;;;4998690;28;20411;-74
2023/09/27 09:16:23;;;;;;;8.10;7.30;;;20.70;99.90;;;;;;4997327;28;20037;-72
2023/09/27 09:18:54;;;;;;;7.72;6.93;;;20.80;99.90;;;;;;4981806;28;20053;-74
2023/09/27 09:21:20;;;;;;;8.32;7.50;;;20.90;99.90;;;;;;4983250;28;20396;-74
2023/09/27 09:23:49;;;;;;;8.70;6.57;;;21.10;99.90;;;;;;4998737;28;20428;-72
2023/09/27 09:26:29;;;;;;;6.85;6.25;;;21.20;99.90;;;;;;5014554;28;20029;-73
2023/09/27 09:28:59;;;;;;;6.97;6.28;;;21.50;99.90;;;;;;4976415;28;20044;-75
2023/09/27 09:31:28;;;;;;;6.75;5.68;;;21.70;99.90;;;;;;4984072;28;20042;-71
2023/09/27 09:34:08;;;;;;;8.65;6.93;;;22.00;99.90;;;;;;4982399;28;20069;-74
2023/09/27 09:36:36;;;;;;;11.07;9.98;;;22.30;99.90;;;;;;4998495;28;20037;-73
2023/09/27 09:39:13;;;;;;;9.95;7.65;;;22.50;99.90;;;;;;4982283;28;20029;-74
2023/09/27 09:41:51;;;;;;;7.93;6.68;;;22.60;99.90;;;;;;4999192;28;20042;-74
2023/09/27 09:44:19;;;;;;;6.68;5.57;;;22.70;99.90;;;;;;4999343;28;20432;-76
2023/09/27 09:46:46;;;;;;;5.82;5.10;;;22.90;99.90;;;;;;5000511;28;20061;-73
2023/09/27 09:49:16;;;;;;;5.93;5.32;;;23.00;99.90;;;;;;4999198;28;20038;-75
2023/09/27 09:51:47;;;;;;;5.63;4.50;;;23.00;99.90;;;;;;5000080;28;20056;-76
2023/09/27 09:54:29;;;;;;;6.65;4.07;;;23.00;99.90;;;;;;4982465;28;20054;-75
2023/09/27 09:56:59;;;;;;;4.88;4.05;;;23.00;99.90;;;;;;4999428;28;20037;-74
2023/09/27 09:59:34;;;;;;;5.50;4.25;;;23.10;99.90;;;;;;5003540;28;20041;-75
2023/09/27 10:02:11;;;;;;;5.13;4.13;;;23.20;99.90;;;;;;4998469;28;20805;-74
2023/09/27 10:04:39;;;;;;;6.05;4.63;;;23.20;99.90;;;;;;4999607;28;20510;-75
2023/09/27 10:07:06;;;;;;;8.32;3.70;;;23.10;99.90;;;;;;4997929;28;20058;-76
2023/09/27 10:09:33;;;;;;;7.68;6.22;;;23.10;99.90;;;;;;4983006;28;20122;-75
2023/09/27 10:12:01;;;;;;;5.25;4.75;;;23.20;99.90;;;;;;4981704;28;20046;-74
2023/09/27 10:14:29;;;;;;;7.45;6.68;;;23.40;99.90;;;;;;4999035;28;20045;-75
2023/09/27 10:16:55;;;;;;;5.93;5.28;;;23.50;99.90;;;;;;5000188;28;20037;-75
2023/09/27 10:19:28;;;;;;;6.75;4.93;;;23.60;99.90;;;;;;4998778;28;20034;-74
2023/09/27 10:22:04;;;;;;;5.60;4.00;;;23.80;99.90;;;;;;4995588;28;20057;-75
2023/09/27 10:24:33;;;;;;;4.93;4.30;;;24.10;99.90;;;;;;4994275;28;20064;-75
2023/09/27 10:27:00;;;;;;;4.18;3.25;;;24.40;99.90;;;;;;4995495;28;20511;-78
2023/09/27 10:29:27;;;;;;;5.10;3.88;;;24.70;99.90;;;;;;4996860;28;20037;-76
2023/09/27 10:31:56;;;;;;;5.15;4.50;;;24.70;99.90;;;;;;4980326;28;20835;-76
2023/09/27 10:34:28;;;;;;;5.22;3.95;;;25.00;99.90;;;;;;4980828;28;20046;-75
2023/09/27 10:36:55;;;;;;;;;;;25.30;99.90;;;;;;4996608;28;20045;-75
2023/09/27 10:39:22;;;;;;;2.45;1.70;;;25.60;99.90;;;;;;4996688;28;20418;-75
2023/09/27 10:41:50;;;;;;;3.05;2.42;;;25.50;99.90;;;;;;4995168;28;20026;-74
2023/09/27 10:44:33;;;;;;;3.10;2.70;;;25.40;99.90;;;;;;4994358;28;20034;-75
2023/09/27 10:47:04;;;;;;;3.33;2.40;;;25.20;99.90;;;;;;4979024;28;20033;-75
2023/09/27 10:49:38;;;;;;;3.63;2.33;;;25.10;99.90;;;;;;4994333;28;20034;-75
2023/09/27 10:52:17;;;;;;;3.28;2.40;;;25.10;99.90;;;;;;4995616;28;20038;-76
2023/09/27 10:54:44;;;;;;;3.38;2.92;;;25.10;99.90;;;;;;4994019;28;20042;-75
2023/09/27 10:57:12;;;;;;;4.63;3.08;;;25.20;99.90;;;;;;4994749;28;20408;-75
2023/09/27 10:59:39;;;;;;;3.20;2.35;;;25.40;99.90;;;;;;4979906;28;20041;-75
2023/09/27 11:02:06;;;;;;;3.20;2.22;;;25.40;99.90;;;;;;4997929;28;20088;-75
2023/09/27 11:04:35;;;;;;;4.88;2.47;;;25.30;99.90;;;;;;4994210;28;20040;-75
2023/09/27 11:07:02;;;;;;;4.70;3.10;;;25.20;99.90;;;;;;4994945;28;20685;-75
2023/09/27 11:09:29;;;;;;;3.95;3.35;;;25.20;99.90;;;;;;4966893;28;20033;-75
2023/09/27 11:11:57;;;;;;;3.63;2.70;;;25.40;99.90;;;;;;4995977;28;20038;-75
2023/09/27 11:14:32;;;;;;;3.80;3.22;;;25.80;99.90;;;;;;4993836;28;21569;-75
2023/09/27 11:17:23;;;;;;;5.05;2.60;;;26.10;99.90;;;;;;4989660;28;20034;-75
2023/09/27 11:19:50;;;;;;;3.65;2.65;;;26.20;99.90;;;;;;5007876;28;20053;-75
2023/09/27 11:22:27;;;;;;;3.92;2.20;;;26.10;99.90;;;;;;5008040;28;20034;-76
2023/09/27 11:24:53;;;;;;;3.90;2.35;;;26.00;99.90;;;;;;4959808;28;20038;-75
2023/09/27 11:27:20;;;;;;;5.32;2.65;;;25.80;99.90;;;;;;4994030;28;20034;-76
2023/09/27 11:29:53;;;;;;;3.53;2.83;;;25.70;99.90;;;;;;4975687;28;20646;-75
2023/09/27 11:32:21;;;;;;;3.85;2.08;;;25.60;99.90;;;;;;4995297;28;20037;-74
2023/09/27 11:34:55;;;;;;;2.78;1.70;;;25.40;99.90;;;;;;4993012;28;20370;-74
2023/09/27 11:37:23;;;;;;;3.53;2.17;;;25.10;99.90;;;;;;4992822;28;20037;-74
2023/09/27 11:39:51;;;;;;;4.22;2.70;;;25.00;99.90;;;;;;4992317;28;20041;-74
2023/09/27 11:42:21;;;;;;;3.22;2.15;;;24.90;99.90;;;;;;4990515;28;20034;-74
2023/09/27 11:45:08;;;;;;;4.53;3.28;;;24.80;99.90;;;;;;4992801;28;20026;-73
2023/09/27 11:47:48;;;;;;;4.68;2.72;;;24.80;99.90;;;;;;4975486;28;20492;-73
2023/09/27 11:50:16;;;;;;;4.45;2.88;;;25.00;99.90;;;;;;4990938;28;20042;-73
2023/09/27 11:52:43;;;;;;;4.88;2.83;;;25.40;99.90;;;;;;4990904;28;20041;-73
2023/09/27 11:55:10;;;;;;;3.83;2.60;;;26.00;99.90;;;;;;4979176;28;20038;-73
2023/09/27 11:57:37;;;;;;;6.47;3.08;;;27.00;99.90;;;;;;5005010;28;21494;-74
2023/09/27 12:00:08;;;;;;;5.88;2.83;;;28.10;99.90;;;;;;4991745;28;20070;-73
2023/09/27 12:02:37;;;;;;;4.65;2.30;;;29.00;99.90;;;;;;4957156;28;20496;-73
2023/09/27 12:05:04;;;;;;;3.88;2.80;;;29.80;99.90;;;;;;4988687;28;20046;-74
2023/09/27 12:07:32;;;;;;;4.13;3.22;;;30.30;99.90;;;;;;4989260;28;20507;-74
2023/09/27 12:09:59;;;;;;;4.80;2.85;;;31.00;99.80;;;;;;4992149;28;20037;-74
2023/09/27 12:12:25;;;;;;;3.65;2.20;;;31.50;98.80;;;;;;5006117;28;20277;-74
2023/09/27 12:14:51;;;;;;;3.95;2.28;;;32.00;97.50;;;;;;5004520;28;20046;-74
2023/09/27 12:17:18;;;;;;;3.10;2.38;;;32.40;96.40;;;;;;4991609;28;20052;-74
2023/09/27 12:19:45;;;;;;;3.25;2.05;;;33.00;95.10;;;;;;4992390;28;20492;-74
2023/09/27 12:22:12;;;;;;;3.08;1.90;;;33.30;93.90;;;;;;4991489;28;20034;-73
2023/09/27 12:24:38;;;;;;;4.15;2.58;;;33.80;93.10;;;;;;5007058;28;20092;-74
2023/09/27 12:27:06;;;;;;;4.95;2.85;;;34.10;91.60;;;;;;4974821;28;20030;-74
2023/09/27 12:29:33;;;;;;;4.00;1.85;;;34.40;89.50;;;;;;5002127;28;20041;-74
2023/09/27 12:32:00;;;;;;;2.95;1.48;;;34.50;88.40;;;;;;5004544;28;20057;-74
2023/09/27 12:34:26;;;;;;;2.80;1.83;;;34.50;85.90;;;;;;4977908;28;20042;-74
2023/09/27 12:36:53;;;;;;;3.20;2.65;;;34.60;85.30;;;;;;4994999;28;20038;-73
2023/09/27 12:39:19;;;;;;;4.03;2.70;;;34.80;84.30;;;;;;4965471;28;20407;-74
2023/09/27 12:41:45;;;;;;;2.28;1.83;;;34.60;82.60;;;;;;4977209;28;20045;-74
2023/09/27 12:44:12;;;;;;;3.78;2.95;;;34.00;82.60;;;;;;5006581;28;20728;-76
2023/09/27 12:46:39;;;;;;;5.70;3.92;;;33.40;82.70;;;;;;4995516;28;20042;-76
2023/09/27 12:49:05;;;;;;;2.78;2.47;;;33.10;83.40;;;;;;4977995;28;20030;-75